Time;durP1;ratioP1;P1;durP2;ratioP2;P2;SDS_P1;SDS_P2;PMS_P1;PMS_P2;Temp;Humidity;BMP_temperature;BMP_pressure;BME280_temperature;BME280_humidity;BME280_pressure;Samples;Min_cycle;Max_cycle;Signal;HPM_P1;HPM_P2
2024/01/04 00:01:23;;;;;;;4.70;3.10;;;;;;;17.94;39.28;99860.46;103283;1282;61392;-77
2024/01/04 00:03:48;;;;;;;5.90;3.30;;;;;;;17.94;39.29;99859.38;103351;1283;61353;-77
2024/01/04 00:06:14;;;;;;;4.70;3.20;;;;;;;17.95;39.25;99857.55;103382;1283;61240;-77
2024/01/04 00:08:40;;;;;;;5.30;3.30;;;;;;;17.95;39.39;99846.16;103445;1282;61204;-77
2024/01/04 00:11:06;;;;;;;5.90;3.30;;;;;;;17.95;39.28;99850.11;103303;1283;61462;-77
2024/01/04 00:13:32;;;;;;;6.60;3.50;;;;;;;17.95;39.26;99850.62;103360;1282;61331;-77
2024/01/04 00:15:58;;;;;;;5.20;3.30;;;;;;;17.95;39.34;99849.36;103137;1282;59925;-77
2024/01/04 00:18:24;;;;;;;5.10;3.40;;;;;;;17.96;39.18;99853.78;103110;1283;61438;-77
2024/01/04 00:20:49;;;;;;;5.10;3.40;;;;;;;17.96;39.29;99854.29;103142;1288;61423;-77
2024/01/04 00:23:15;;;;;;;5.10;3.20;;;;;;;17.97;39.33;99869.17;103247;1282;61381;-77
2024/01/04 00:25:41;;;;;;;6.60;3.20;;;;;;;17.98;39.29;99865.39;103235;1287;59899;-77
2024/01/04 00:28:07;;;;;;;5.70;3.60;;;;;;;17.98;39.19;99862.70;103550;1284;61359;-77
2024/01/04 00:30:32;;;;;;;6.40;3.40;;;;;;;17.99;39.35;99859.62;103325;1282;74467;-77
2024/01/04 00:32:58;;;;;;;4.60;3.30;;;;;;;17.99;39.19;99873.10;103317;1286;61362;-77
2024/01/04 00:35:24;;;;;;;4.80;3.00;;;;;;;18.00;39.14;99880.02;103291;1282;61462;-77
2024/01/04 00:37:49;;;;;;;5.30;3.20;;;;;;;18.00;39.32;99884.26;103200;1287;62283;-77
2024/01/04 00:40:15;;;;;;;5.30;3.10;;;;;;;18.00;39.30;99891.53;103243;1286;59988;-77
2024/01/04 00:42:41;;;;;;;5.30;3.00;;;;;;;18.01;39.22;99896.84;103232;1287;61366;-77
2024/01/04 00:45:07;;;;;;;4.60;3.00;;;;;;;18.01;39.27;99895.56;103323;1283;61276;-77
2024/01/04 00:47:32;;;;;;;5.10;3.40;;;;;;;18.02;39.27;99894.11;103183;1287;61313;-77
2024/01/04 00:49:58;;;;;;;6.00;3.20;;;;;;;18.02;39.20;99894.29;103168;1286;61464;-77
2024/01/04 00:52:24;;;;;;;5.20;3.30;;;;;;;18.02;39.13;99886.77;103111;1282;60023;-77
2024/01/04 00:54:50;;;;;;;5.70;3.30;;;;;;;18.03;39.17;99886.72;103319;1283;61360;-77
2024/01/04 00:57:15;;;;;;;5.30;3.20;;;;;;;18.03;39.34;99890.42;103209;1283;61276;-77
2024/01/04 00:59:41;;;;;;;5.00;3.30;;;;;;;18.03;39.22;99888.30;103332;1286;61362;-77
2024/01/04 01:02:07;;;;;;;5.00;3.10;;;;;;;18.04;39.21;99889.33;103233;1283;61445;-77
2024/01/04 01:04:32;;;;;;;5.70;3.20;;;;;;;18.04;39.20;99888.59;103329;1283;61395;-77
2024/01/04 01:06:58;;;;;;;5.40;3.10;;;;;;;18.04;39.20;99883.94;103340;1281;61369;-77
2024/01/04 01:09:24;;;;;;;5.60;3.50;;;;;;;18.05;39.11;99882.67;103389;1282;61135;-77
2024/01/04 01:11:49;;;;;;;5.00;3.10;;;;;;;18.05;39.23;99875.36;103310;1283;61396;-77
2024/01/04 01:14:15;;;;;;;4.30;2.80;;;;;;;18.05;39.15;99878.20;103637;1283;59954;-77
2024/01/04 01:16:40;;;;;;;5.50;3.30;;;;;;;18.05;39.20;99880.70;103292;1283;60238;-77
2024/01/04 01:19:07;;;;;;;5.60;3.20;;;;;;;18.05;39.17;99881.76;103311;1282;62252;-77
2024/01/04 01:21:33;;;;;;;5.00;3.00;;;;;;;18.05;39.29;99884.75;103334;1282;61373;-77
2024/01/04 01:23:58;;;;;;;6.10;3.50;;;;;;;18.06;39.23;99882.76;103290;1285;61506;-77
2024/01/04 01:26:24;;;;;;;4.80;3.20;;;;;;;18.06;39.17;99883.78;103315;1285;61167;-77
2024/01/04 01:28:50;;;;;;;5.10;3.20;;;;;;;18.07;39.22;99878.93;103270;1281;61471;-77
2024/01/04 01:31:16;;;;;;;5.50;3.40;;;;;;;18.08;39.17;99877.98;103396;1283;60064;-77
2024/01/04 01:33:45;;;;;;;5.10;3.20;;;;;;;18.08;39.13;99874.98;103219;1282;61426;-77
2024/01/04 01:36:11;;;;;;;5.10;3.10;;;;;;;18.08;39.04;99868.52;103342;1283;72445;-77
2024/01/04 01:38:38;;;;;;;6.70;3.10;;;;;;;18.08;39.16;99871.92;103227;1286;62284;-77
2024/01/04 01:41:03;;;;;;;4.80;2.80;;;;;;;18.08;39.18;99872.42;103326;1281;61407;-77
2024/01/04 01:43:29;;;;;;;4.60;3.10;;;;;;;18.09;39.22;99876.29;103656;1282;60163;-78
2024/01/04 01:45:55;;;;;;;5.40;3.00;;;;;;;18.09;39.10;99881.07;103238;1286;61372;-77
2024/01/04 01:48:21;;;;;;;5.80;3.30;;;;;;;18.09;39.09;99881.62;103274;1283;61399;-77
2024/01/04 01:50:46;;;;;;;4.80;3.20;;;;;;;18.11;39.13;99881.35;103344;1282;62207;-77
2024/01/04 01:53:13;;;;;;;4.70;3.10;;;;;;;18.11;39.13;99884.36;103220;1281;61154;-77
2024/01/04 01:55:39;;;;;;;5.30;3.20;;;;;;;18.11;39.12;99881.16;103313;1281;61476;-77
2024/01/04 01:58:05;;;;;;;5.00;3.00;;;;;;;18.12;39.19;99881.64;103248;1282;59975;-77
2024/01/04 02:00:31;;;;;;;4.50;2.90;;;;;;;18.12;38.99;99879.66;103326;1282;61531;-77
2024/01/04 02:02:57;;;;;;;5.10;3.10;;;;;;;18.12;39.14;99878.77;103348;1282;61263;-77
2024/01/04 02:05:22;;;;;;;4.70;3.00;;;;;;;18.13;39.03;99879.07;103227;1282;61504;-77
2024/01/04 02:07:48;;;;;;;4.90;2.90;;;;;;;18.14;39.14;99885.78;103230;1286;61212;-77
2024/01/04 02:10:13;;;;;;;5.00;3.10;;;;;;;18.14;38.95;99886.63;103270;1283;73373;-77
2024/01/04 02:12:39;;;;;;;5.40;2.90;;;;;;;18.14;39.01;99887.34;103279;1282;61269;-77
2024/01/04 02:15:07;;;;;;;4.80;3.10;;;;;;;18.14;39.11;99892.30;103313;1281;61445;-77
2024/01/04 02:17:34;;;;;;;4.10;2.60;;;;;;;18.15;39.08;99890.67;103317;1283;61261;-77
2024/01/04 02:19:59;;;;;;;5.60;2.80;;;;;;;18.15;38.98;99890.31;103458;1282;59929;-77
2024/01/04 02:22:25;;;;;;;5.40;3.20;;;;;;;18.15;39.18;99887.98;103208;1283;61448;-77
2024/01/04 02:24:51;;;;;;;4.90;2.70;;;;;;;18.15;38.98;99883.14;103210;1281;61456;-77
2024/01/04 02:27:17;;;;;;;6.60;3.50;;;;;;;18.16;39.11;99882.35;103253;1282;62220;-77
2024/01/04 02:29:42;;;;;;;4.40;2.80;;;;;;;18.17;38.98;99881.98;103098;1288;61405;-77
2024/01/04 02:32:08;;;;;;;5.50;3.10;;;;;;;18.17;39.13;99883.38;103451;1282;61363;-77
2024/01/04 02:34:34;;;;;;;5.00;3.10;;;;;;;18.18;39.02;99876.92;103318;1282;75493;-77
2024/01/04 02:37:00;;;;;;;4.70;3.00;;;;;;;18.18;39.03;99871.92;103307;1282;61830;-77
2024/01/04 02:39:25;;;;;;;4.80;2.80;;;;;;;18.18;38.99;99871.73;103347;1281;61434;-77
2024/01/04 02:41:51;;;;;;;5.30;3.00;;;;;;;18.19;39.10;99879.34;103132;1288;61364;-77
2024/01/04 02:44:17;;;;;;;4.50;3.00;;;;;;;18.19;39.03;99878.63;103311;1285;61463;-77
2024/01/04 02:46:43;;;;;;;4.70;2.70;;;;;;;18.19;39.11;99880.04;103327;1281;60031;-77
2024/01/04 02:49:08;;;;;;;5.00;2.80;;;;;;;18.19;38.99;99875.35;103186;1281;62101;-76
2024/01/04 02:51:34;;;;;;;5.00;3.00;;;;;;;18.20;39.03;99874.77;103271;1281;61359;-76
2024/01/04 02:54:00;;;;;;;4.60;2.60;;;;;;;18.20;38.95;99871.76;103254;1282;62159;-76
2024/01/04 02:56:25;;;;;;;4.10;2.60;;;;;;;18.21;39.09;99873.13;103140;1286;61366;-78
2024/01/04 02:58:51;;;;;;;5.20;2.90;;;;;;;18.21;38.99;99873.84;103316;1281;61248;-77
2024/01/04 03:01:20;;;;;;;5.00;2.70;;;;;;;18.21;38.96;99878.08;103215;1286;61426;-76
2024/01/04 03:03:47;;;;;;;4.50;2.60;;;;;;;18.22;38.96;99878.58;103294;1285;61379;-77
2024/01/04 03:06:13;;;;;;;4.50;3.00;;;;;;;18.22;38.99;99879.98;103318;1281;72464;-76
2024/01/04 03:08:38;;;;;;;4.60;2.90;;;;;;;18.22;38.85;99878.16;103280;1282;62280;-76
2024/01/04 03:11:04;;;;;;;4.70;3.00;;;;;;;18.23;39.09;99883.65;103235;1281;62156;-76
2024/01/04 03:13:30;;;;;;;4.30;2.80;;;;;;;18.24;39.12;99887.70;103324;1281;61365;-76
2024/01/04 03:15:56;;;;;;;4.90;2.60;;;;;;;18.23;38.88;99883.10;103304;1285;59431;-76
2024/01/04 03:18:21;;;;;;;4.70;2.90;;;;;;;18.23;38.95;99878.44;103265;1282;61397;-76
2024/01/04 03:20:47;;;;;;;4.60;2.70;;;;;;;18.24;38.94;99877.46;103085;1287;74218;-76
2024/01/04 03:23:12;;;;;;;4.80;3.20;;;;;;;18.25;38.93;99875.11;103008;1285;61348;-76
2024/01/04 03:25:39;;;;;;;4.80;2.60;;;;;;;18.25;38.92;99865.86;103058;1285;61281;-76
2024/01/04 03:28:05;;;;;;;4.90;3.00;;;;;;;18.25;38.97;99861.59;103052;1285;61503;-76
2024/01/04 03:30:31;;;;;;;4.10;2.70;;;;;;;18.26;38.92;99861.90;103012;1285;60080;-76
2024/01/04 03:32:56;;;;;;;4.30;2.70;;;;;;;18.26;39.01;99861.18;103086;1283;61403;-76
2024/01/04 03:35:22;;;;;;;3.90;2.50;;;;;;;18.26;38.97;99857.77;103091;1284;61431;-76
2024/01/04 03:37:48;;;;;;;4.90;3.00;;;;;;;18.27;38.91;99856.84;103181;1286;61168;-76
2024/01/04 03:40:13;;;;;;;5.00;3.00;;;;;;;18.27;38.94;99853.40;103153;1284;61395;-76
2024/01/04 03:42:39;;;;;;;5.40;3.20;;;;;;;18.28;38.89;99852.66;102972;1284;61360;-76
2024/01/04 03:45:06;;;;;;;5.50;2.80;;;;;;;18.29;38.85;99847.45;103047;1285;59998;-76
2024/01/04 03:47:32;;;;;;;5.50;3.30;;;;;;;18.29;38.86;99849.05;103008;1285;61460;-76
2024/01/04 03:49:59;;;;;;;4.90;3.00;;;;;;;18.29;38.89;99852.79;102881;1285;61394;-76
2024/01/04 03:52:24;;;;;;;4.70;2.80;;;;;;;18.29;39.01;99854.54;103143;1281;61247;-76
2024/01/04 03:54:50;;;;;;;5.20;2.80;;;;;;;18.29;38.96;99857.38;103235;1282;61474;-76
2024/01/04 03:57:16;;;;;;;4.00;2.60;;;;;;;18.30;38.80;99860.71;103191;1286;60055;-76
2024/01/04 03:59:42;;;;;;;4.30;2.70;;;;;;;18.31;38.81;99869.58;103192;1282;60212;-76
2024/01/04 04:02:07;;;;;;;4.60;2.70;;;;;;;18.31;38.84;99870.63;103219;1282;61337;-76
2024/01/04 04:04:33;;;;;;;5.10;3.00;;;;;;;18.31;38.85;99875.96;103128;1284;61401;-76
2024/01/04 04:06:59;;;;;;;5.10;2.80;;;;;;;18.31;38.84;99875.23;103090;1282;61635;-76
2024/01/04 04:09:24;;;;;;;4.80;2.70;;;;;;;18.32;38.85;99881.41;103273;1282;61364;-76
2024/01/04 04:11:50;;;;;;;5.30;2.70;;;;;;;18.32;38.91;99879.61;103140;1282;61275;-76
2024/01/04 04:14:16;;;;;;;4.90;2.80;;;;;;;18.33;38.95;99886.35;103291;1282;59920;-76
2024/01/04 04:16:42;;;;;;;4.00;2.50;;;;;;;18.33;38.82;99886.64;103043;1288;61497;-76
2024/01/04 04:19:08;;;;;;;4.40;2.80;;;;;;;18.33;39.05;99882.72;103260;1281;61368;-76
2024/01/04 04:21:34;;;;;;;5.10;2.80;;;;;;;18.33;38.79;99881.48;103261;1281;62205;-76
2024/01/04 04:23:59;;;;;;;3.60;2.40;;;;;;;18.34;38.82;99884.44;103228;1282;61380;-76
2024/01/04 04:26:25;;;;;;;4.00;2.40;;;;;;;18.34;38.91;99882.64;103176;1282;62286;-76
2024/01/04 04:28:51;;;;;;;5.10;2.80;;;;;;;18.35;38.92;99883.66;103107;1282;75219;-76
2024/01/04 04:31:18;;;;;;;5.20;2.90;;;;;;;18.36;38.94;99883.79;103222;1282;61270;-76
2024/01/04 04:33:44;;;;;;;4.50;2.80;;;;;;;18.36;38.80;99877.33;103151;1282;61389;-76
2024/01/04 04:36:11;;;;;;;5.30;2.80;;;;;;;18.36;38.81;99876.61;103150;1282;61171;-76
2024/01/04 04:38:37;;;;;;;3.80;2.50;;;;;;;18.37;38.79;99873.72;103474;1284;61376;-76
2024/01/04 04:41:06;;;;;;;4.10;2.50;;;;;;;18.38;38.90;99871.88;103305;1282;60314;-76
2024/01/04 04:43:32;;;;;;;4.80;2.50;;;;;;;18.38;38.69;99876.18;103180;1282;60469;-76
2024/01/04 04:45:58;;;;;;;4.70;3.00;;;;;;;18.38;38.57;99871.01;103094;1287;72461;-76
2024/01/04 04:48:25;;;;;;;4.20;2.60;;;;;;;18.37;38.70;99870.32;103437;1281;61250;-76
2024/01/04 04:50:51;;;;;;;4.30;2.60;;;;;;;18.37;38.75;99872.26;103178;1282;60105;-76
2024/01/04 04:53:17;;;;;;;4.80;2.70;;;;;;;18.38;38.77;99867.41;103218;1282;61311;-76
2024/01/04 04:55:43;;;;;;;4.50;2.60;;;;;;;18.38;38.77;99868.29;103253;1282;61365;-76
2024/01/04 04:58:09;;;;;;;4.50;2.80;;;;;;;18.38;38.65;99866.48;103208;1282;60024;-76
2024/01/04 05:00:35;;;;;;;4.50;2.60;;;;;;;18.39;38.77;99869.67;103118;1282;61133;-76
2024/01/04 05:03:00;;;;;;;4.10;2.70;;;;;;;18.38;38.84;99867.53;103166;1282;61376;-76
2024/01/04 05:05:27;;;;;;;4.00;2.20;;;;;;;18.39;38.71;99870.52;103229;1282;61259;-76
2024/01/04 05:07:53;;;;;;;4.20;2.40;;;;;;;18.39;38.85;99866.08;102757;1283;71314;-76
2024/01/04 05:10:19;;;;;;;4.20;2.50;;;;;;;18.40;38.76;99870.96;103668;1285;61376;-76
2024/01/04 05:12:45;;;;;;;3.90;2.60;;;;;;;18.40;38.75;99868.99;103160;1282;60016;-76
2024/01/04 05:15:10;;;;;;;4.60;2.70;;;;;;;18.40;38.79;99871.33;103269;1282;61503;-76
2024/01/04 05:17:36;;;;;;;4.40;2.70;;;;;;;18.40;38.75;99877.38;103231;1285;61346;-76
2024/01/04 05:20:04;;;;;;;5.10;2.60;;;;;;;18.41;38.67;99883.39;103206;1286;61214;-76
2024/01/04 05:22:30;;;;;;;4.00;2.70;;;;;;;18.41;38.68;99886.91;103266;1282;74844;-76
2024/01/04 05:24:56;;;;;;;5.00;2.90;;;;;;;18.42;38.79;99891.13;103120;1282;61370;-76
2024/01/04 05:27:22;;;;;;;5.40;2.50;;;;;;;18.42;38.75;99898.59;103168;1281;61457;-76
2024/01/04 05:29:47;;;;;;;5.10;2.60;;;;;;;18.43;38.84;99903.73;103259;1282;61242;-76
2024/01/04 05:32:13;;;;;;;4.30;2.90;;;;;;;18.43;38.75;99901.42;103227;1283;61344;-76
2024/01/04 05:34:39;;;;;;;6.40;2.80;;;;;;;18.43;38.65;99896.61;103243;1282;61389;-76
2024/01/04 05:37:05;;;;;;;4.20;2.70;;;;;;;18.44;38.73;99896.20;103182;1282;61461;-76
2024/01/04 05:39:30;;;;;;;6.00;3.00;;;;;;;18.44;38.58;99902.77;103068;1282;60802;-76
2024/01/04 05:41:56;;;;;;;4.90;3.10;;;;;;;18.44;38.66;99900.82;103135;1282;61414;-76
2024/01/04 05:44:21;;;;;;;5.70;3.10;;;;;;;18.45;38.79;99905.04;103219;1282;61461;-76
2024/01/04 05:46:47;;;;;;;5.20;2.70;;;;;;;18.45;38.69;99906.60;103212;1282;59377;-76
2024/01/04 05:49:13;;;;;;;6.80;2.80;;;;;;;18.46;38.81;99902.66;103118;1282;61404;-76
2024/01/04 05:51:38;;;;;;;4.10;2.70;;;;;;;18.46;38.70;99901.41;103241;1281;61327;-76
2024/01/04 05:54:04;;;;;;;5.00;2.60;;;;;;;18.46;38.62;99904.21;103295;1281;60109;-76
2024/01/04 05:56:30;;;;;;;5.40;3.10;;;;;;;18.47;38.60;99903.63;103212;1281;61449;-76
2024/01/04 05:58:55;;;;;;;6.30;2.60;;;;;;;18.47;38.63;99900.06;103238;1281;61394;-76
2024/01/04 06:01:21;;;;;;;7.70;2.90;;;;;;;18.48;38.72;99899.48;103307;1282;62230;-76
2024/01/04 06:03:47;;;;;;;5.30;2.90;;;;;;;18.48;38.69;99895.91;103089;1282;59512;-76
2024/01/04 06:06:15;;;;;;;4.80;2.90;;;;;;;18.48;38.68;99894.13;103313;1282;61401;-76
2024/01/04 06:08:43;;;;;;;5.10;2.90;;;;;;;18.48;38.60;99899.42;103160;1284;74265;-76
2024/01/04 06:11:09;;;;;;;5.60;3.10;;;;;;;18.49;38.62;99903.84;102954;1282;61370;-76
2024/01/04 06:13:35;;;;;;;4.50;2.40;;;;;;;18.49;38.78;99902.94;103110;1282;62406;-76
2024/01/04 06:16:07;;;;;;;5.80;2.60;;;;;;;18.50;38.64;99900.93;103286;1286;61178;-76
2024/01/04 06:18:36;;;;;;;5.00;2.70;;;;;;;18.50;38.52;99907.66;102896;1285;74366;-76
2024/01/04 06:21:02;;;;;;;4.50;2.50;;;;;;;18.50;38.74;99909.98;103164;1283;61094;-77
2024/01/04 06:23:28;;;;;;;5.70;2.70;;;;;;;18.51;38.57;99916.35;103171;1283;61729;-77
2024/01/04 06:25:53;;;;;;;6.40;2.80;;;;;;;18.52;38.63;99920.21;103289;1287;60104;-76
2024/01/04 06:28:20;;;;;;;5.90;2.60;;;;;;;18.52;38.62;99924.83;103185;1286;62516;-76
2024/01/04 06:30:47;;;;;;;4.90;2.70;;;;;;;18.52;38.66;99921.75;103220;1283;61934;-76
2024/01/04 06:33:13;;;;;;;6.70;2.90;;;;;;;18.53;38.70;99925.62;103152;1283;60408;-76
2024/01/04 06:35:39;;;;;;;5.50;2.60;;;;;;;18.53;38.66;99925.95;103006;1284;61402;-76
2024/01/04 06:38:08;;;;;;;4.90;2.80;;;;;;;18.53;38.74;99924.52;102901;1286;61480;-76
2024/01/04 06:40:38;;;;;;;5.90;2.70;;;;;;;18.54;38.70;99927.48;103214;1286;61400;-76
2024/01/04 06:43:08;;;;;;;5.00;2.50;;;;;;;18.54;38.73;99925.71;103152;1283;61108;-76
2024/01/04 06:45:36;;;;;;;;;;;;;;;18.55;38.87;99923.54;103089;1283;72497;-76
2024/01/04 06:48:03;;;;;;;4.90;2.50;;;;;;;18.53;38.80;99927.98;102997;1284;74421;-76
2024/01/04 06:50:29;;;;;;;4.50;2.60;;;;;;;18.54;38.77;99927.88;103479;1281;61367;-76
2024/01/04 06:52:56;;;;;;;7.80;3.30;;;;;;;18.55;38.75;99924.80;103434;1282;62274;-76
2024/01/04 06:55:23;;;;;;;7.20;2.80;;;;;;;18.55;38.71;99921.36;103263;1281;59943;-75
2024/01/04 06:57:48;;;;;;;4.30;2.60;;;;;;;18.55;38.78;99917.99;103541;1281;62146;-76
2024/01/04 07:00:15;;;;;;;6.50;2.80;;;;;;;18.55;38.91;99912.44;103202;1280;61399;-76
2024/01/04 07:02:41;;;;;;;4.20;2.80;;;;;;;18.56;38.80;99907.06;103481;1280;61388;-77
2024/01/04 07:05:06;;;;;;;5.80;3.10;;;;;;;18.56;38.92;99907.23;103294;1282;62172;-76
2024/01/04 07:07:33;;;;;;;8.70;3.40;;;;;;;18.57;38.98;99909.51;103452;1280;61360;-76
2024/01/04 07:09:59;;;;;;;6.70;2.70;;;;;;;18.57;38.89;99910.70;103295;1282;60056;-76
2024/01/04 07:12:25;;;;;;;7.80;2.70;;;;;;;18.57;38.83;99907.63;103410;1282;61436;-77
2024/01/04 07:14:51;;;;;;;5.40;2.70;;;;;;;18.59;38.89;99909.70;103807;1282;61283;-77
2024/01/04 07:17:17;;;;;;;8.40;2.60;;;;;;;18.58;38.96;99909.36;103678;1281;73584;-77
2024/01/04 07:19:45;;;;;;;6.70;3.00;;;;;;;18.60;38.99;99916.05;103390;1282;60088;-77
2024/01/04 07:22:12;;;;;;;4.40;2.30;;;;;;;18.60;38.91;99919.58;103621;1281;60191;-76
2024/01/04 07:24:37;;;;;;;8.80;3.10;;;;;;;18.61;38.89;99925.23;103326;1282;61548;-76
2024/01/04 07:27:04;;;;;;;5.80;2.60;;;;;;;18.62;38.99;99925.01;103287;1285;60979;-76
2024/01/04 07:29:30;;;;;;;5.10;2.50;;;;;;;18.62;38.96;99931.53;103271;1283;61404;-77
2024/01/04 07:31:57;;;;;;;5.70;2.60;;;;;;;18.63;39.01;99934.02;103330;1282;61913;-75
2024/01/04 07:34:23;;;;;;;5.00;2.60;;;;;;;18.63;38.97;99931.64;103309;1282;61423;-76
2024/01/04 07:36:51;;;;;;;8.50;2.70;;;;;;;18.64;39.07;99930.36;103177;1282;61288;-76
2024/01/04 07:39:17;;;;;;;5.80;2.80;;;;;;;18.64;38.96;99927.84;103006;1286;672539;-77
2024/01/04 07:41:43;;;;;;;6.70;2.90;;;;;;;18.65;39.05;99926.20;103711;1281;61318;-77
2024/01/04 07:44:09;;;;;;;6.60;2.40;;;;;;;18.65;38.93;99921.56;103433;1281;62146;-77
2024/01/04 07:46:35;;;;;;;6.80;2.60;;;;;;;18.65;38.98;99925.07;103650;1281;62310;-78
2024/01/04 07:49:01;;;;;;;6.60;2.80;;;;;;;18.66;39.00;99920.59;103889;1282;62306;-76
2024/01/04 07:51:26;;;;;;;6.50;2.10;;;;;;;18.66;39.05;99919.13;103269;1280;61353;-76
2024/01/04 07:53:53;;;;;;;4.60;2.60;;;;;;;18.66;39.16;99912.71;103760;1281;60022;-77
2024/01/04 07:56:18;;;;;;;6.50;2.70;;;;;;;18.67;39.37;99912.15;103164;1281;62562;-77
2024/01/04 07:58:44;;;;;;;5.50;2.60;;;;;;;18.68;39.09;99917.27;103658;1280;72603;-77
2024/01/04 08:01:10;;;;;;;6.80;2.60;;;;;;;18.68;39.35;99914.33;103438;1282;61400;-76
2024/01/04 08:03:35;;;;;;;5.90;2.60;;;;;;;18.69;39.28;99913.77;103354;1281;61384;-77
2024/01/04 08:06:01;;;;;;;4.30;2.40;;;;;;;18.70;39.32;99918.15;103520;1282;61242;-77
2024/01/04 08:08:27;;;;;;;5.40;3.00;;;;;;;18.71;39.23;99919.66;103525;1283;61129;-77
2024/01/04 08:10:53;;;;;;;7.10;2.70;;;;;;;18.71;39.24;99921.45;104274;1281;61333;-77
2024/01/04 08:13:19;;;;;;;9.30;3.40;;;;;;;18.71;39.27;99921.76;104031;1281;74314;-76
2024/01/04 08:15:44;;;;;;;5.00;2.50;;;;;;;18.72;39.22;99917.30;103770;1281;61433;-77
2024/01/04 08:18:10;;;;;;;6.90;3.00;;;;;;;18.72;39.25;99911.77;103716;1282;60213;-77
2024/01/04 08:20:35;;;;;;;8.90;2.80;;;;;;;18.72;39.32;99905.83;103723;1281;61274;-77
2024/01/04 08:23:01;;;;;;;4.50;2.30;;;;;;;18.74;39.22;99907.50;103872;1280;61319;-77
2024/01/04 08:25:27;;;;;;;9.00;2.50;;;;;;;18.74;39.22;99903.20;103523;1282;74466;-77
2024/01/04 08:27:54;;;;;;;6.10;2.80;;;;;;;18.75;39.29;99893.67;103446;1285;61265;-77
2024/01/04 08:30:20;;;;;;;3.90;2.30;;;;;;;18.75;39.27;99892.96;103232;1282;61270;-77
2024/01/04 08:32:47;;;;;;;7.10;2.50;;;;;;;18.75;39.25;99893.48;103318;1281;60042;-77
2024/01/04 08:35:13;;;;;;;7.70;2.60;;;;;;;18.76;39.26;99886.70;103371;1282;61474;-77
2024/01/04 08:37:40;;;;;;;6.20;2.60;;;;;;;18.76;39.36;99887.89;103613;1282;61428;-77
2024/01/04 08:40:07;;;;;;;4.80;2.40;;;;;;;18.77;39.24;99886.98;103536;1281;61373;-76
2024/01/04 08:42:32;;;;;;;5.70;2.60;;;;;;;18.77;39.22;99880.02;103594;1281;62154;-77
2024/01/04 08:44:58;;;;;;;5.20;2.70;;;;;;;18.77;39.19;99878.73;103755;1282;61483;-77
2024/01/04 08:47:24;;;;;;;7.70;2.50;;;;;;;18.78;39.20;99881.39;103398;1281;59257;-77
2024/01/04 08:49:50;;;;;;;5.30;2.50;;;;;;;18.79;39.26;99873.13;103517;1282;61260;-77
2024/01/04 08:52:16;;;;;;;5.50;2.50;;;;;;;18.78;39.26;99866.16;103224;1282;61554;-77
2024/01/04 08:54:42;;;;;;;5.40;2.50;;;;;;;18.79;39.23;99857.38;103464;1282;61331;-77
2024/01/04 08:57:07;;;;;;;7.60;2.90;;;;;;;18.80;39.23;99852.13;103319;1282;74473;-77
2024/01/04 08:59:34;;;;;;;7.00;2.80;;;;;;;18.81;39.21;99846.70;103260;1281;60063;-77
2024/01/04 09:01:59;;;;;;;4.90;2.60;;;;;;;18.81;39.19;99840.98;103289;1281;61441;-77
2024/01/04 09:04:25;;;;;;;4.00;2.40;;;;;;;18.83;39.29;99836.40;103384;1282;59934;-76
2024/01/04 09:06:51;;;;;;;5.20;2.40;;;;;;;18.83;39.31;99834.04;103416;1281;61462;-77
2024/01/04 09:09:17;;;;;;;7.00;2.70;;;;;;;18.84;39.21;99830.80;103292;1282;61366;-77
2024/01/04 09:11:48;;;;;;;4.70;2.30;;;;;;;18.85;39.16;99828.55;103351;1281;61502;-77
2024/01/04 09:14:14;;;;;;;6.40;2.60;;;;;;;18.86;39.22;99824.04;103529;1281;61328;-77
2024/01/04 09:16:40;;;;;;;4.30;2.20;;;;;;;18.88;38.99;99822.33;103528;1281;61424;-77
2024/01/04 09:19:06;;;;;;;5.40;2.60;;;;;;;18.89;39.24;99823.30;103382;1281;60117;-77
2024/01/04 09:21:32;;;;;;;6.70;3.10;;;;;;;18.90;39.06;99821.80;103456;1282;61313;-76
2024/01/04 09:23:58;;;;;;;4.40;2.40;;;;;;;18.91;39.17;99819.02;103566;1281;62221;-77
2024/01/04 09:26:24;;;;;;;4.70;2.30;;;;;;;18.92;39.15;99816.50;103304;1280;61478;-77
2024/01/04 09:28:50;;;;;;;6.60;2.70;;;;;;;18.93;39.12;99806.08;103434;1281;61391;-76
2024/01/04 09:31:15;;;;;;;5.30;2.40;;;;;;;18.94;39.17;99802.98;103292;1282;61420;-77
2024/01/04 09:33:41;;;;;;;6.00;2.70;;;;;;;18.95;39.02;99802.90;103507;1282;61343;-77
2024/01/04 09:36:07;;;;;;;5.20;2.50;;;;;;;18.96;39.01;99806.61;103531;1280;61235;-77
2024/01/04 09:38:34;;;;;;;4.30;2.40;;;;;;;18.96;39.08;99807.30;103708;1281;61917;-77
2024/01/04 09:41:24;;;;;;;5.10;2.40;;;;;;;18.96;39.06;99799.95;103999;1280;61586;-77
2024/01/04 09:44:03;;;;;;;5.20;2.80;;;;;;;18.97;39.01;99794.35;103603;1281;61096;-77
2024/01/04 09:46:34;;;;;;;5.30;2.70;;;;;;;18.98;39.00;99792.14;103712;1281;60513;-77
2024/01/04 09:49:00;;;;;;;6.80;2.60;;;;;;;18.98;39.00;99786.06;103389;1284;73497;-77
2024/01/04 09:51:33;;;;;;;6.90;2.50;;;;;;;19.00;39.15;99784.52;103658;1281;75418;-77
2024/01/04 09:54:02;;;;;;;3.80;2.30;;;;;;;19.00;39.06;99780.95;103636;1282;61248;-77
2024/01/04 09:56:28;;;;;;;4.50;2.60;;;;;;;19.01;39.05;99781.39;103397;1281;61402;-77
2024/01/04 09:58:53;;;;;;;7.00;2.70;;;;;;;19.01;39.13;99775.83;103821;1281;61428;-77
2024/01/04 10:01:23;;;;;;;6.00;2.40;;;;;;;19.02;39.13;99769.88;103476;1281;61258;-77
2024/01/04 10:03:49;;;;;;;5.00;2.40;;;;;;;19.02;39.07;99769.50;103561;1281;61360;-77
2024/01/04 10:06:32;;;;;;;5.00;2.50;;;;;;;19.04;39.09;99765.98;103444;1279;61196;-77
2024/01/04 10:09:19;;;;;;;5.30;2.50;;;;;;;19.05;38.97;99761.63;103520;1281;72596;-76
2024/01/04 10:12:05;;;;;;;5.90;2.70;;;;;;;19.06;39.08;99758.85;103672;1279;74419;-76
2024/01/04 10:14:31;;;;;;;6.40;2.60;;;;;;;19.07;38.97;99754.02;104002;1281;60064;-77
2024/01/04 10:16:57;;;;;;;5.70;2.50;;;;;;;19.08;39.12;99749.81;103617;1282;62160;-77
2024/01/04 10:19:23;;;;;;;5.40;2.40;;;;;;;19.09;39.00;99744.73;103848;1282;61481;-77
2024/01/04 10:21:49;;;;;;;5.10;2.40;;;;;;;19.10;38.84;99735.21;104840;1281;61340;-77
2024/01/04 10:24:22;;;;;;;4.50;2.50;;;;;;;19.12;38.97;99728.50;104115;1281;59923;-77
2024/01/04 10:26:58;;;;;;;4.80;2.60;;;;;;;19.12;39.00;99724.02;103686;1282;59911;-77
2024/01/04 10:29:28;;;;;;;4.20;2.30;;;;;;;19.13;39.10;99718.58;103596;1281;72473;-77
2024/01/04 10:32:00;;;;;;;4.20;2.30;;;;;;;19.13;38.98;99706.45;103358;1282;74253;-77
2024/01/04 10:34:26;;;;;;;4.40;2.30;;;;;;;19.14;38.82;99694.97;103521;1282;61384;-77
2024/01/04 10:36:54;;;;;;;5.70;2.20;;;;;;;19.14;38.94;99692.95;103209;1282;62278;-77
2024/01/04 10:39:20;;;;;;;5.00;2.60;;;;;;;19.15;39.05;99687.02;103221;1282;72346;-76
2024/01/04 10:41:59;;;;;;;4.20;2.40;;;;;;;19.16;38.87;99685.50;103724;1282;61379;-76
2024/01/04 10:44:26;;;;;;;4.30;2.40;;;;;;;19.17;38.91;99678.48;103457;1280;61345;-77
2024/01/04 10:46:56;;;;;;;4.90;2.30;;;;;;;19.17;38.87;99675.08;103380;1281;61375;-77
2024/01/04 10:49:23;;;;;;;4.10;2.40;;;;;;;19.18;38.89;99672.69;103528;1281;72484;-77
2024/01/04 10:51:52;;;;;;;4.20;2.50;;;;;;;19.18;38.79;99670.00;103834;1282;75393;-76
2024/01/04 10:54:18;;;;;;;4.60;2.60;;;;;;;19.19;38.87;99662.46;103278;1282;61388;-76
2024/01/04 10:56:44;;;;;;;5.40;2.40;;;;;;;19.19;38.89;99653.15;103464;1281;61295;-77
2024/01/04 10:59:10;;;;;;;6.00;2.70;;;;;;;19.19;38.80;99649.20;103520;1282;62352;-77
2024/01/04 11:01:36;;;;;;;5.30;2.60;;;;;;;19.20;38.87;99648.62;103399;1281;61292;-76
2024/01/04 11:04:01;;;;;;;5.10;2.60;;;;;;;19.20;38.96;99646.29;103381;1282;61327;-76
2024/01/04 11:06:27;;;;;;;5.30;2.60;;;;;;;19.21;39.01;99642.85;103268;1282;62215;-76
2024/01/04 11:08:56;;;;;;;4.10;2.20;;;;;;;19.21;38.84;99637.48;103331;1282;62297;-76
2024/01/04 11:11:21;;;;;;;4.90;2.50;;;;;;;19.22;38.82;99630.64;103079;1282;73265;-76
2024/01/04 11:13:47;;;;;;;5.10;2.40;;;;;;;19.22;38.86;99628.48;103309;1282;61440;-76
2024/01/04 11:16:44;;;;;;;4.30;2.20;;;;;;;19.22;38.93;99628.83;103255;1282;61350;-76
2024/01/04 11:19:31;;;;;;;5.90;2.50;;;;;;;19.22;38.97;99623.13;103352;1281;61462;-76
2024/01/04 11:22:14;;;;;;;4.90;2.60;;;;;;;19.22;39.02;99613.64;103222;1282;71403;-76